Scandinavian Mountains Airport

ESKS · Södermanland, 瑞典

罗盘
风向 的 风向 110° Scandinavian Mountains Airport 15/33
风: 7 kt, 3 beaufort

6 kt

4 kt
改变
0 ft 5.000 10.000 15.000 20.000
Cloud Cloud Cloud Cloud Cloud Cloud
BKN 19.000
METAR ESKS 212150Z AUTO 11007KT 9999 BKN190/// 17/12 Q1012

METAR Scandinavian Mountains Airport - ESKS/SCR

Scandinavian Mountains Airport是,瑞典中的中型机场。 该机场位于纬度61,16476和经度12,83404。 该机场有一条跑道: 15/33. 本场的ICAO机场代码为ESKS。 该机场的IATA代码为SCR。 机场在Sweden FIR中。

该航空气象观测是针对Scandinavian Mountains Airport在2024年7月21日 23:50, 当地时间进行的。

机场观察

风向为110°,速度为7 kt。

可见度为10 km 或者更多。

有碎云在19.000 ft的高度。 破损或更高的上限为19.000 ft。

温度和风寒是17 °C。 露点为12 °C,相对湿度为73%。 海平面上的气压为1012 hPa (QNH)。

白天

今天,太阳从04:15升起,在22:14降落。 这适用于Scandinavian Mountains Airport,世界夏令时可能有所不同。 当地时间与世界标准时间之间的时差为+2 小时。 夏令时目前正在进行中。

公司介绍

我们没有关于这个机场的公司信息。

体会

到Vliegles.nl去找飞行课程,跳伞和其他飞行体验。 浏览页面,了解Scandinavian Mountains Airport附近所有可用的活动。 你也可以使用搜索功能来寻找你所在地附近的特定飞行课程、跳伞或其他飞行体验。

跑道

Id 标题 侧风 逆风 侧风 %
15/33 147°-327° 4 kt 6 kt 60 %

逆风成分最大的方向会被突出显示,并用于横风计算。 这并不一定意味着这个方向在使用。

乌云

19.000 ft BKN 碎云

温度 & 天气

温度 17 °C
露点 12 °C
相对湿度 73%
Kp-index 2 (0-9)

白天

日出
04:15 (4:07)
中午
13:15
日落
22:14

小工具

你想在你的网站上有一个关于Scandinavian Mountains Airport的当前航空天气(METAR)的小部件吗?

显示HTML代码
报告变更